Thunder radar more information blitzortung!


Radar de pluja more information rain snow radar


Visita la nostra xarxa de llocs de meteo:

Template documentation
and downloads

And another site



No particular awareness of the weather is required.    There are no Weather-warnings

Pagina Historial Weather Underground text

Diari Resum Novembre 21, 2017 Unitats:  Imperial    Mètric   Tant
« Previous Dia
SegĂźent Dia »
Diari Setmana Mensual Anual Personalitzada
  Maxima: Minima: Media:
Temperatura: TemperatureC °F 4.8 °F 12.4 °F
Punt de rosada: DewpointC °F -1.9 °F 2.5 °F
Humitat: Humidity % 42 % 51 %
Wind Speed: WindSpeedKMH mph 0.0 mph 2.1 mph
RĂ fegues de vent: WindSpeedGustKMH mph - -
Vent:- - SSE
Pression baro: PressurehPa in 1018.8 in -
Precipitacions: 0.0 in    
Historical Graphs
 
 
Dades de taula per Novembre 21, 2017
Temps Temperatura Punt de rosada Pression baro Vent Wind Speed RĂ fegues de vent Humitat Rainfall Rate (Hourly)
TemperatureC °F DewpointC °F PressurehPa in Calm     Humidity % HourlyPrecipMM in
00:00 6.0 °F -1.2 °F 1020.9 in North 1.6 mph 3.2 mph 60 % 0.0 in
00:03 7.0 °F -0.7 °F 1022.9 in NNE 1.9 mph   58 % 0.0 in
00:08 7.0 °F -0.5 °F 1022.9 in Calm     59 % 0.0 in
00:20 5.7 °F -1.4 °F 1021.9 in NNE 1.6 mph 4.8 mph 60 % 0.0 in
00:30 5.8 °F -1.4 °F 1021.9 in North 1.6 mph 4.8 mph 60 % 0.0 in
00:40 5.7 °F -1.2 °F 1020.9 in Calm   3.2 mph 61 % 0.0 in
00:50 5.3 °F -1.6 °F 1020.9 in Calm   1.6 mph 61 % 0.0 in
01:00 5.1 °F -1.8 °F 1021.9 in North 1.6 mph 1.6 mph 61 % 0.0 in
01:10 5.0 °F -1.9 °F 1020.9 in NNE 1.6 mph 3.2 mph 61 % 0.0 in
01:20 4.8 °F -1.9 °F 1020.9 in Calm   1.6 mph 62 % 0.0 in
01:50 4.8 °F -1.9 °F 1021.9 in Calm   3.2 mph 62 % 0.0 in
02:10 5.2 °F -1.5 °F 1020.9 in NW 1.6 mph 3.2 mph 62 % 0.0 in
02:20 5.7 °F -1.0 °F 1020.9 in Calm   3.2 mph 62 % 0.0 in
02:30 6.1 °F -0.7 °F 1020.9 in North 1.6 mph 3.2 mph 62 % 0.0 in
02:50 7.3 °F 0.3 °F 1021.9 in NNW 1.6 mph 1.6 mph 61 % 0.0 in
03:00 8.1 °F 0.8 °F 1021.9 in Calm   1.6 mph 60 % 0.0 in
03:10 8.4 °F 0.8 °F 1021.9 in North 1.6 mph 1.6 mph 59 % 0.0 in
03:20 9.0 °F 1.4 °F 1021.9 in North 1.6 mph 1.6 mph 59 % 0.0 in
03:30 9.2 °F 1.3 °F 1021.9 in Calm   4.8 mph 58 % 0.0 in
03:40 9.7 °F 1.6 °F 1021.9 in NNE 1.6 mph 3.2 mph 57 % 0.0 in
03:50 10.0 °F 1.9 °F 1021.9 in NNE 1.6 mph 3.2 mph 57 % 0.0 in
04:00 10.4 °F 2.0 °F 1021.9 in NE 3.2 mph 4.8 mph 56 % 0.0 in
04:30 11.3 °F 2.3 °F 1021.9 in NE 3.2 mph 4.8 mph 54 % 0.0 in
10:38 12.0 °F 2.9 °F 1022.9 in NE 3.9 mph 3.9 mph 54 % 0.0 in
10:39 12.0 °F 2.9 °F 1022.9 in NE 3.7 mph 3.7 mph 54 % 0.0 in
10:44 12.1 °F 3.1 °F 1022.9 in NE 3.7 mph 3.7 mph 54 % 0.0 in
10:54 12.3 °F 3.0 °F 1022.9 in South 3.7 mph 3.7 mph 53 % 0.0 in
10:59 13.2 °F 3.8 °F 1022.9 in SW 1.9 mph 1.9 mph 53 % 0.0 in
11:04 13.2 °F 3.8 °F 1022.9 in WSW 3.7 mph 3.7 mph 53 % 0.0 in
11:14 13.2 °F 3.8 °F 1022.9 in NNE 1.9 mph 1.9 mph 53 % 0.0 in
11:24 13.7 °F 4.0 °F 1022.9 in SSW 1.9 mph   52 % 0.0 in
11:29 13.9 °F 4.2 °F 1022.9 in WSW 3.7 mph 3.7 mph 52 % 0.0 in
11:34 14.0 °F 4.3 °F 1023.9 in East 1.9 mph 1.9 mph 52 % 0.0 in
11:39 14.0 °F 4.3 °F 1023.9 in East 3.7 mph 3.7 mph 52 % 0.0 in
11:44 14.1 °F 4.4 °F 1023.9 in ENE 5.6 mph 5.6 mph 52 % 0.0 in
11:49 14.2 °F 4.5 °F 1023.9 in NE 3.7 mph 3.7 mph 52 % 0.0 in
11:54 14.5 °F 4.8 °F 1023.9 in ENE 1.9 mph 1.9 mph 52 % 0.0 in
11:59 14.7 °F 4.9 °F 1023.9 in NNE 3.7 mph 3.7 mph 52 % 0.0 in
12:04 14.6 °F 4.8 °F 1023.9 in NE 3.7 mph 4.2 mph 52 % 0.0 in
12:09 14.6 °F 4.6 °F 1023.9 in NNE 5.6 mph 5.6 mph 51 % 0.0 in
12:14 14.8 °F 4.8 °F 1023.9 in NNW 1.9 mph 1.9 mph 51 % 0.0 in
12:24 15.3 °F 5.2 °F 1022.9 in NE 3.7 mph 3.7 mph 51 % 0.0 in
12:29 15.6 °F 5.5 °F 1022.9 in NE 3.7 mph 3.7 mph 51 % 0.0 in
12:34 15.8 °F 5.7 °F 1022.9 in ENE 3.7 mph 3.7 mph 51 % 0.0 in
12:44 16.6 °F 6.4 °F 1022.9 in ESE 3.7 mph 3.7 mph 51 % 0.0 in
12:49 16.6 °F 6.1 °F 1022.9 in East 3.7 mph 3.7 mph 50 % 0.0 in
12:54 16.5 °F 6.1 °F 1022.9 in ESE 2.6 mph 2.6 mph 50 % 0.0 in
12:59 16.5 °F 6.1 °F 1022.9 in ENE 5.6 mph 5.6 mph 50 % 0.0 in
13:04 16.8 °F 6.3 °F 1022.9 in East 4.2 mph 4.2 mph 50 % 0.0 in
13:09 16.9 °F 6.4 °F 1022.9 in ESE 1.9 mph   50 % 0.0 in
13:14 16.9 °F 6.4 °F 1022.9 in ENE 3.9 mph 3.9 mph 50 % 0.0 in
13:19 17.0 °F 6.2 °F 1021.9 in NNW 1.9 mph   49 % 0.0 in
13:24 17.1 °F 6.3 °F 1021.9 in NE 5.6 mph 5.6 mph 49 % 0.0 in
13:27 17.1 °F 6.3 °F 1021.9 in NW 3.7 mph 3.7 mph 49 % 0.0 in
13:30 17.1 °F 6.3 °F 1021.9 in Calm     49 % 0.0 in
13:40 17.4 °F 6.6 °F 1021.9 in ENE 3.7 mph 3.7 mph 49 % 0.0 in
13:45 17.5 °F 6.7 °F 1021.9 in East 3.7 mph 3.7 mph 49 % 0.0 in
13:50 17.7 °F 6.8 °F 1021.9 in NNE 3.9 mph 3.9 mph 49 % 0.0 in
13:55 17.7 °F 6.8 °F 1021.9 in WNW 1.9 mph 1.9 mph 49 % 0.0 in
14:00 17.8 °F 6.9 °F 1021.9 in ENE 3.7 mph 3.7 mph 49 % 0.0 in
14:05 17.9 °F 6.7 °F 1021.9 in East 5.6 mph 5.6 mph 48 % 0.0 in
14:15 18.1 °F 6.9 °F 1021.9 in ENE 3.7 mph 3.7 mph 48 % 0.0 in
14:20 18.1 °F 6.9 °F 1021.9 in NNW 3.7 mph 3.7 mph 48 % 0.0 in
14:25 18.2 °F 6.7 °F 1021.9 in NNW 1.9 mph 1.9 mph 47 % 0.0 in
14:30 18.2 °F 6.7 °F 1021.9 in ENE 3.7 mph 3.7 mph 47 % 0.0 in
14:40 18.2 °F 6.4 °F 1021.9 in NE 1.9 mph   46 % 0.0 in
14:45 18.3 °F 6.5 °F 1021.9 in ENE 3.7 mph 3.7 mph 46 % 0.0 in
14:50 18.3 °F 6.5 °F 1021.9 in ESE 3.7 mph 3.7 mph 46 % 0.0 in
14:55 18.4 °F 6.2 °F 1021.9 in ESE 3.7 mph 4.2 mph 45 % 0.0 in
15:05 18.6 °F 6.4 °F 1020.9 in SE 5.6 mph 5.6 mph 45 % 0.0 in
15:15 18.7 °F 6.5 °F 1020.9 in ENE 3.7 mph 3.7 mph 45 % 0.0 in
15:20 18.8 °F 6.6 °F 1021.9 in ENE 3.7 mph 3.7 mph 45 % 0.0 in
15:30 18.9 °F 6.4 °F 1021.9 in East 3.9 mph 3.9 mph 44 % 0.0 in
15:40 19.0 °F 6.1 °F 1021.9 in East 3.7 mph 3.7 mph 43 % 0.0 in
15:45 19.0 °F 6.1 °F 1021.9 in East 3.7 mph 3.7 mph 43 % 0.0 in
15:50 19.1 °F 6.2 °F 1021.9 in East 1.9 mph 2.3 mph 43 % 0.0 in
15:55 19.1 °F 6.2 °F 1021.9 in ENE 1.9 mph   43 % 0.0 in
16:05 19.0 °F 6.1 °F 1021.9 in Calm     43 % 0.0 in
16:15 19.1 °F 5.9 °F 1021.9 in East 3.7 mph 3.7 mph 42 % 0.0 in
16:20 19.0 °F 5.8 °F 1021.9 in East 3.9 mph 3.9 mph 42 % 0.0 in
16:25 19.0 °F 5.8 °F 1021.9 in East 3.7 mph 3.7 mph 42 % 0.0 in
16:30 19.0 °F 5.8 °F 1021.9 in East 1.9 mph 1.9 mph 42 % 0.0 in
16:40 18.9 °F 6.1 °F 1021.9 in East 2.3 mph 2.3 mph 43 % 0.0 in
16:45 18.8 °F 5.9 °F 1021.9 in Calm     43 % 0.0 in
16:50 19.0 °F 6.1 °F 1021.9 in Calm     43 % 0.0 in
16:55 19.0 °F 6.4 °F 1021.9 in SSW 1.9 mph 1.9 mph 44 % 0.0 in
17:05 18.8 °F 6.6 °F 1021.9 in SW 3.7 mph 3.7 mph 45 % 0.0 in
17:10 18.5 °F 6.3 °F 1021.9 in SW 1.9 mph 1.9 mph 45 % 0.0 in
17:15 18.2 °F 6.1 °F 1021.9 in SW 1.9 mph 1.9 mph 45 % 0.0 in
17:20 17.8 °F 5.7 °F 1021.9 in SW 2.3 mph 2.3 mph 45 % 0.0 in
17:30 17.1 °F 5.1 °F 1021.9 in SW 3.7 mph 3.7 mph 45 % 0.0 in
17:35 16.9 °F 5.2 °F 1021.9 in Calm     46 % 0.0 in
17:40 16.6 °F 4.9 °F 1021.9 in ENE 3.7 mph 3.7 mph 46 % 0.0 in
17:45 16.4 °F 4.7 °F 1021.9 in Calm     46 % 0.0 in
17:50 16.3 °F 4.7 °F 1021.9 in NNW 1.9 mph 1.9 mph 46 % 0.0 in
17:55 16.2 °F 4.6 °F 1021.9 in Calm     46 % 0.0 in
18:00 16.2 °F 4.6 °F 1021.9 in NNW 1.9 mph 1.9 mph 46 % 0.0 in
18:05 16.0 °F 4.4 °F 1021.9 in NNW 2.3 mph 2.3 mph 46 % 0.0 in
18:10 15.9 °F 4.3 °F 1021.9 in NNE 1.9 mph 1.9 mph 46 % 0.0 in
18:15 15.0 °F 3.4 °F 1021.9 in WSW 2.3 mph 2.3 mph 46 % 0.0 in
18:20 7.7 °F -0.8 °F 1019.9 in West 3.2 mph 3.2 mph 55 % 0.0 in
18:25 14.4 °F 2.9 °F 1020.9 in SW 3.7 mph 3.7 mph 46 % 0.0 in
18:30 14.1 °F 2.7 °F 1020.9 in West 2.3 mph 2.3 mph 46 % 0.0 in
18:35 14.2 °F 2.7 °F 1021.9 in WSW 2.3 mph 2.3 mph 46 % 0.0 in
18:40 14.2 °F 2.7 °F 1021.9 in West 3.2 mph 3.2 mph 46 % 0.0 in
18:45 14.1 °F 2.7 °F 1021.9 in SW 3.9 mph 3.9 mph 46 % 0.0 in
18:50 14.0 °F 2.6 °F 1021.9 in SW 3.5 mph 3.5 mph 46 % 0.0 in
18:55 13.7 °F 2.3 °F 1021.9 in SW 3.7 mph 3.7 mph 46 % 0.0 in
19:00 7.6 °F -0.9 °F 1019.9 in Calm   3.2 mph 55 % 0.0 in
19:05 13.5 °F 2.1 °F 1020.9 in Calm     46 % 0.0 in
19:10 13.4 °F 2.0 °F 1020.9 in West 1.9 mph 2.3 mph 46 % 0.0 in
19:15 13.3 °F 1.9 °F 1020.9 in West 1.9 mph   46 % 0.0 in
19:20 13.2 °F 1.8 °F 1021.9 in West 1.9 mph 1.9 mph 46 % 0.0 in
19:25 13.1 °F 1.7 °F 1021.9 in West 1.9 mph   46 % 0.0 in
19:30 13.0 °F 1.6 °F 1021.9 in West 2.6 mph 2.6 mph 46 % 0.0 in
19:35 12.8 °F 1.4 °F 1021.9 in WNW 1.9 mph 1.9 mph 46 % 0.0 in
19:40 7.1 °F -0.8 °F 1019.9 in Calm     57 % 0.0 in
19:50 12.4 °F 1.1 °F 1020.9 in Calm     46 % 0.0 in
19:55 12.2 °F 0.9 °F 1020.9 in Calm     46 % 0.0 in
20:00 12.2 °F 1.2 °F 1020.9 in NNW 2.3 mph 2.3 mph 47 % 0.0 in
20:05 12.2 °F 1.2 °F 1020.9 in Calm     47 % 0.0 in
20:10 11.8 °F 0.8 °F 1020.9 in West 1.9 mph   47 % 0.0 in
20:15 11.7 °F 0.7 °F 1020.9 in Calm     47 % 0.0 in
20:20 6.7 °F -1.0 °F 1019.9 in WSW 1.6 mph 3.2 mph 58 % 0.0 in
20:26 11.4 °F 0.5 °F 1020.9 in West 3.7 mph 3.7 mph 47 % 0.0 in
20:30 11.5 °F 0.6 °F 1020.9 in SW 3.9 mph 3.9 mph 47 % 0.0 in
20:35 11.4 °F 0.8 °F 1020.9 in SW 1.9 mph 1.9 mph 48 % 0.0 in
20:40 11.2 °F 0.6 °F 1020.9 in Calm     48 % 0.0 in
20:50 6.8 °F -0.9 °F 1019.9 in Calm     58 % 0.0 in
20:51 10.9 °F 0.3 °F 1020.9 in WSW 3.7 mph 3.7 mph 48 % 0.0 in
21:00 10.8 °F 0.5 °F 1020.9 in Calm     49 % 0.0 in
21:06 10.6 °F 0.3 °F 1020.9 in WSW 3.5 mph 3.5 mph 49 % 0.0 in
21:10 6.9 °F -0.6 °F 1018.8 in Calm     59 % 0.0 in
21:11 10.4 °F 0.4 °F 1020.9 in WSW 3.7 mph 3.7 mph 50 % 0.0 in
21:20 6.8 °F -0.7 °F 1018.8 in Calm   1.6 mph 59 % 0.0 in
21:30 6.9 °F -0.6 °F 1019.9 in Calm     59 % 0.0 in
21:31 10.1 °F 0.4 °F 1019.9 in NNW 2.6 mph 2.6 mph 51 % 0.0 in
21:40 6.5 °F -0.9 °F 1018.8 in North 1.6 mph 3.2 mph 59 % 0.0 in
21:41 10.1 °F 0.4 °F 1019.9 in ENE 3.7 mph 3.7 mph 51 % 0.0 in
21:46 10.0 °F 0.3 °F 1019.9 in WSW 3.9 mph 3.9 mph 51 % 0.0 in
22:00 6.1 °F -1.3 °F 1018.8 in East 1.6 mph 3.2 mph 59 % 0.0 in
22:01 9.4 °F 0.0 °F 1020.9 in Calm     52 % 0.0 in
22:06 9.5 °F 0.1 °F 1019.9 in ENE 1.9 mph 1.9 mph 52 % 0.0 in
22:10 5.9 °F -1.3 °F 1018.8 in Calm   3.2 mph 60 % 0.0 in
22:16 9.3 °F -0.1 °F 1019.9 in Calm     52 % 0.0 in
22:20 5.6 °F -1.6 °F 1018.8 in SW 1.6 mph 3.2 mph 60 % 0.0 in
22:21 9.2 °F -0.2 °F 1020.9 in ENE 1.9 mph 1.9 mph 52 % 0.0 in
22:30 5.6 °F -1.3 °F 1018.8 in WSW 3.2 mph 3.2 mph 61 % 0.0 in
22:31 9.1 °F 0.0 °F 1020.9 in Calm     53 % 0.0 in
22:36 9.0 °F -0.1 °F 1020.9 in SW 4.2 mph 4.2 mph 53 % 0.0 in
22:40 5.8 °F -1.4 °F 1018.8 in Calm   3.2 mph 60 % 0.0 in
22:41 9.0 °F -0.3 °F 1020.9 in WSW 2.3 mph 2.6 mph 52 % 0.0 in
22:46 8.9 °F -0.2 °F 1020.9 in Calm     53 % 0.0 in
22:50 6.0 °F -0.9 °F 1018.8 in Calm     61 % 0.0 in
22:51 8.8 °F -0.3 °F 1019.9 in Calm     53 % 0.0 in
22:56 8.9 °F -0.2 °F 1019.9 in NNW 2.3 mph   53 % 0.0 in
23:00 5.8 °F -1.2 °F 1018.8 in Calm   1.6 mph 61 % 0.0 in
23:01 8.8 °F -0.3 °F 1019.9 in Calm     53 % 0.0 in
23:06 8.6 °F -0.4 °F 1019.9 in Calm     53 % 0.0 in
23:11 8.4 °F -0.6 °F 1019.9 in Calm     53 % 0.0 in
23:20 5.6 °F -1.1 °F 1018.8 in North 3.2 mph 3.2 mph 62 % 0.0 in
23:21 8.2 °F -0.6 °F 1019.9 in Calm     54 % 0.0 in
23:26 8.2 °F -0.6 °F 1019.9 in North 3.2 mph 3.2 mph 54 % 0.0 in
23:30 5.5 °F -1.2 °F 1018.8 in Calm   3.2 mph 62 % 0.0 in
23:40 5.2 °F -1.5 °F 1018.8 in Calm     62 % 0.0 in
23:41 8.3 °F -0.5 °F 1019.9 in Calm     54 % 0.0 in
23:46 8.3 °F -0.2 °F 1019.9 in Calm     55 % 0.0 in
23:50 5.0 °F -1.7 °F 1018.8 in WNW 1.6 mph 3.2 mph 62 % 0.0 in
23:51 8.2 °F -0.3 °F 1018.8 in NNE 1.9 mph   55 % 0.0 in
23:56 8.1 °F -0.4 °F 1018.8 in WNW 1.4 mph   55 % 0.0 in
Meteo Sesrovires
Elogis d' Weather Underground - 3.5 mb

Guio original per  Jim McMurry - jmcmurry@mwt.net Adaptat per a la plantilla per  Wim van der Kuil - Leuven-Template.eu

Trobareu la nostra informacio del temps tambe a:

Weather Underground

AWEKAS